createdAt,value
2023-12-29T00:01:55.664Z,3.03
2023-12-29T00:04:22.423Z,3.22
2023-12-29T00:06:57.156Z,3.04
2023-12-29T00:09:26.912Z,2.58
2023-12-29T00:11:55.427Z,3.07
2023-12-29T00:14:22.068Z,3.15
2023-12-29T00:16:48.848Z,2.69
2023-12-29T00:19:15.968Z,3.47
2023-12-29T00:21:43.101Z,3.32
2023-12-29T00:24:10.208Z,3.36
2023-12-29T00:26:37.258Z,3.42
2023-12-29T00:29:04.423Z,3.71
2023-12-29T00:31:31.283Z,3.75
2023-12-29T00:33:58.342Z,3.43
2023-12-29T00:36:25.243Z,3.08
2023-12-29T00:38:51.919Z,3.30
2023-12-29T00:41:18.562Z,3.32
2023-12-29T00:43:45.359Z,3.14
2023-12-29T00:46:15.142Z,3.13
2023-12-29T00:48:42.196Z,3.13
2023-12-29T00:51:09.070Z,3.13
2023-12-29T00:53:37.081Z,3.43
2023-12-29T00:56:04.128Z,3.18
2023-12-29T00:58:30.917Z,3.20
2023-12-29T01:00:57.669Z,3.23
2023-12-29T01:03:26.481Z,3.32
2023-12-29T01:05:53.534Z,3.15
2023-12-29T01:08:20.340Z,3.30
2023-12-29T01:10:47.068Z,3.32
2023-12-29T01:13:13.788Z,3.24
2023-12-29T01:15:41.802Z,3.49
2023-12-29T01:18:08.917Z,3.17
2023-12-29T01:20:35.804Z,3.46
2023-12-29T01:23:02.502Z,3.29
2023-12-29T01:25:29.383Z,3.38
2023-12-29T01:27:56.227Z,3.31
2023-12-29T01:30:23.004Z,3.10
2023-12-29T01:32:49.772Z,3.16
2023-12-29T01:35:17.634Z,3.04
2023-12-29T01:37:46.078Z,3.02
2023-12-29T01:40:13.036Z,2.61
2023-12-29T01:42:39.884Z,2.53
2023-12-29T01:45:18.998Z,2.64
2023-12-29T01:47:45.949Z,2.82
2023-12-29T01:50:12.640Z,3.21
2023-12-29T01:52:43.540Z,3.06
2023-12-29T01:55:14.181Z,2.98
2023-12-29T01:57:41.125Z,2.71
2023-12-29T02:00:08.794Z,3.03
2023-12-29T02:02:39.956Z,3.05
2023-12-29T02:05:06.923Z,2.92
2023-12-29T02:07:33.885Z,3.01
2023-12-29T02:10:02.027Z,3.13
2023-12-29T02:12:29.055Z,3.24
2023-12-29T02:14:55.803Z,3.03
2023-12-29T02:17:41.203Z,2.93
2023-12-29T02:20:09.389Z,3.23
2023-12-29T02:22:36.396Z,3.04
2023-12-29T02:25:03.275Z,3.15
2023-12-29T02:27:48.898Z,3.40
2023-12-29T02:30:21.661Z,3.17
2023-12-29T02:32:50.520Z,3.31
2023-12-29T02:35:24.820Z,3.41
2023-12-29T02:37:52.239Z,3.34
2023-12-29T02:40:19.442Z,3.47
2023-12-29T02:42:47.457Z,3.66
2023-12-29T02:45:14.742Z,3.79
2023-12-29T02:47:42.665Z,3.49
2023-12-29T02:50:09.685Z,3.81
2023-12-29T02:52:36.628Z,3.43
2023-12-29T02:55:04.657Z,3.24
2023-12-29T02:57:31.432Z,3.51
2023-12-29T02:59:58.232Z,3.34
2023-12-29T03:02:25.823Z,3.20
2023-12-29T03:04:52.774Z,3.35
2023-12-29T03:07:19.615Z,3.69
2023-12-29T03:09:46.299Z,3.43
2023-12-29T03:12:13.351Z,3.30
2023-12-29T03:14:40.084Z,3.41
2023-12-29T03:17:06.830Z,3.08
2023-12-29T03:19:33.786Z,3.14
2023-12-29T03:22:00.984Z,3.12
2023-12-29T03:24:27.776Z,3.09
2023-12-29T03:26:54.511Z,3.19
2023-12-29T03:29:21.337Z,2.92
2023-12-29T03:31:48.145Z,3.22
2023-12-29T03:34:15.059Z,3.55
2023-12-29T03:36:41.869Z,3.31
2023-12-29T03:39:08.580Z,3.52
2023-12-29T03:41:35.296Z,3.60
2023-12-29T03:44:02.063Z,3.32
2023-12-29T03:46:28.821Z,3.06
2023-12-29T03:48:57.352Z,3.26
2023-12-29T03:51:23.990Z,3.16
2023-12-29T03:53:50.781Z,4.14
2023-12-29T03:56:19.361Z,3.51
2023-12-29T03:58:46.665Z,3.92
2023-12-29T04:01:16.034Z,3.42
2023-12-29T04:03:43.438Z,3.49
2023-12-29T04:06:10.540Z,3.40
2023-12-29T04:08:38.310Z,3.44
2023-12-29T04:11:05.837Z,3.61
2023-12-29T04:13:32.703Z,3.64
2023-12-29T04:15:59.459Z,3.40
2023-12-29T04:18:26.384Z,3.41
2023-12-29T04:20:53.108Z,3.20
2023-12-29T04:23:19.928Z,3.55
2023-12-29T04:25:47.182Z,3.81
2023-12-29T04:28:14.229Z,3.58
2023-12-29T04:30:41.147Z,3.81
2023-12-29T04:33:07.991Z,3.22
2023-12-29T04:35:34.806Z,3.40
2023-12-29T04:38:03.336Z,3.55
2023-12-29T04:40:30.203Z,3.45
2023-12-29T04:42:56.961Z,3.79
2023-12-29T04:45:23.803Z,3.81
2023-12-29T04:47:50.738Z,3.80
2023-12-29T04:50:17.520Z,3.61
2023-12-29T04:52:44.363Z,3.47
2023-12-29T04:55:11.136Z,3.51
2023-12-29T04:57:38.006Z,3.53
2023-12-29T05:00:05.575Z,4.03
2023-12-29T05:02:32.285Z,3.89
2023-12-29T05:04:59.160Z,3.83
2023-12-29T05:07:25.857Z,4.09
2023-12-29T05:09:52.701Z,4.28
2023-12-29T05:12:19.524Z,4.26
2023-12-29T05:14:46.153Z,3.85
2023-12-29T05:17:12.897Z,3.77
2023-12-29T05:19:39.708Z,3.98
2023-12-29T05:22:06.419Z,4.52
2023-12-29T05:24:33.156Z,3.97
2023-12-29T05:26:59.862Z,4.25
2023-12-29T05:29:27.321Z,4.35
2023-12-29T05:31:54.019Z,4.23
2023-12-29T05:34:21.070Z,3.78
2023-12-29T05:36:50.732Z,3.98
2023-12-29T05:39:17.955Z,4.20
2023-12-29T05:41:44.738Z,3.88
2023-12-29T05:44:11.441Z,3.83
2023-12-29T05:46:38.081Z,4.20
2023-12-29T05:49:04.795Z,4.40
2023-12-29T05:51:31.628Z,4.34
2023-12-29T05:53:58.410Z,4.31
2023-12-29T05:56:26.391Z,4.38
2023-12-29T05:58:53.486Z,4.50
2023-12-29T06:01:21.143Z,4.17
2023-12-29T06:03:48.150Z,4.20
2023-12-29T06:06:14.882Z,4.08
2023-12-29T06:08:41.568Z,4.65
2023-12-29T06:11:08.170Z,4.11
2023-12-29T06:13:34.933Z,4.33
2023-12-29T06:16:01.687Z,4.12
2023-12-29T06:18:28.769Z,4.23
2023-12-29T06:20:55.637Z,4.34
2023-12-29T06:23:22.369Z,4.44
2023-12-29T06:25:49.057Z,4.24
2023-12-29T06:28:15.834Z,3.71
2023-12-29T06:30:42.743Z,3.51
2023-12-29T06:33:10.250Z,3.80
2023-12-29T06:35:37.071Z,3.77
2023-12-29T06:38:03.751Z,3.58
2023-12-29T06:40:30.486Z,3.88
2023-12-29T06:42:57.321Z,4.36
2023-12-29T06:45:24.056Z,4.03
2023-12-29T06:47:50.753Z,3.99
2023-12-29T06:50:17.492Z,3.84
2023-12-29T06:52:44.143Z,3.52
2023-12-29T06:55:11.045Z,3.94
2023-12-29T06:57:37.881Z,3.67
2023-12-29T07:00:05.051Z,3.71
2023-12-29T07:02:31.964Z,3.33
2023-12-29T07:04:58.859Z,3.60
2023-12-29T07:07:29.026Z,3.69
2023-12-29T07:09:55.748Z,3.59
2023-12-29T07:12:22.612Z,3.93
2023-12-29T07:14:49.298Z,3.52
2023-12-29T07:17:16.015Z,4.00
2023-12-29T07:19:42.792Z,3.76
2023-12-29T07:22:09.762Z,3.26
2023-12-29T07:24:37.115Z,3.50
2023-12-29T07:27:04.650Z,3.38
2023-12-29T07:29:31.524Z,3.12
2023-12-29T07:31:58.100Z,3.10
2023-12-29T07:34:25.032Z,3.18
2023-12-29T07:36:52.340Z,3.04
2023-12-29T07:39:19.154Z,2.84
2023-12-29T07:41:45.868Z,3.01
2023-12-29T07:44:15.511Z,2.96
2023-12-29T07:46:42.270Z,2.85
2023-12-29T07:49:09.098Z,3.28
2023-12-29T07:51:39.805Z,3.29
2023-12-29T07:54:06.569Z,3.01
2023-12-29T07:56:33.350Z,3.17
2023-12-29T07:59:00.039Z,3.17
2023-12-29T08:01:28.217Z,3.20
2023-12-29T08:03:55.174Z,3.15
2023-12-29T08:06:22.070Z,3.04
2023-12-29T08:08:48.806Z,2.78
2023-12-29T08:11:17.173Z,2.86
2023-12-29T08:13:48.837Z,2.54
2023-12-29T08:16:15.872Z,2.57
2023-12-29T08:18:42.659Z,2.31
2023-12-29T08:21:09.397Z,2.43
2023-12-29T08:23:36.010Z,2.33
2023-12-29T08:26:03.812Z,2.24
2023-12-29T08:28:30.916Z,2.18
2023-12-29T08:30:58.195Z,2.25
2023-12-29T08:33:24.976Z,2.50
2023-12-29T08:35:51.892Z,2.19
2023-12-29T08:38:18.659Z,2.24
2023-12-29T08:40:45.422Z,1.89
2023-12-29T08:43:12.441Z,1.87
2023-12-29T08:45:39.570Z,1.76
2023-12-29T08:48:06.896Z,1.74
2023-12-29T08:50:33.845Z,2.20
2023-12-29T08:53:00.533Z,1.69
2023-12-29T08:55:27.174Z,1.71
2023-12-29T08:57:53.798Z,1.68
2023-12-29T09:00:20.516Z,1.38
2023-12-29T09:02:47.864Z,1.40
2023-12-29T09:05:14.694Z,1.45
2023-12-29T09:07:41.479Z,1.33
2023-12-29T09:10:13.854Z,1.49
2023-12-29T09:12:40.593Z,1.76
2023-12-29T09:15:07.805Z,1.67
2023-12-29T09:17:35.237Z,1.62
2023-12-29T09:20:07.039Z,1.65
2023-12-29T09:22:37.346Z,1.65
2023-12-29T09:25:04.423Z,1.48
2023-12-29T09:27:31.142Z,1.78
2023-12-29T09:29:57.755Z,1.64
2023-12-29T09:32:24.479Z,1.40
2023-12-29T09:34:51.223Z,1.50
2023-12-29T09:37:18.589Z,1.66
2023-12-29T09:39:45.339Z,1.61
2023-12-29T09:42:18.295Z,1.44
2023-12-29T09:44:46.649Z,1.43
2023-12-29T09:47:17.876Z,1.42
2023-12-29T09:49:45.658Z,1.50
2023-12-29T09:52:14.562Z,1.43
2023-12-29T09:54:42.629Z,1.56
2023-12-29T09:57:09.984Z,1.24
2023-12-29T09:59:39.849Z,1.14
2023-12-29T10:02:06.596Z,1.24
2023-12-29T10:04:34.374Z,3.84
2023-12-29T10:07:05.247Z,1.80
2023-12-29T10:09:34.805Z,1.43
2023-12-29T10:12:03.871Z,1.21
2023-12-29T10:14:53.760Z,1.17
2023-12-29T10:17:29.624Z,1.38
2023-12-29T10:20:16.780Z,1.14
2023-12-29T10:22:55.781Z,1.30
2023-12-29T10:25:24.426Z,1.02
2023-12-29T10:27:52.200Z,1.26
2023-12-29T10:30:25.360Z,1.16
2023-12-29T10:32:59.981Z,1.19
2023-12-29T10:35:28.677Z,1.27
2023-12-29T10:37:55.719Z,1.36
2023-12-29T10:40:22.815Z,1.28
2023-12-29T10:42:53.598Z,1.15
2023-12-29T10:45:20.460Z,1.31
2023-12-29T10:47:47.639Z,1.36
2023-12-29T10:50:14.331Z,1.36
2023-12-29T10:52:42.877Z,1.31
2023-12-29T10:55:10.624Z,1.10
2023-12-29T10:57:38.344Z,1.41
2023-12-29T11:00:07.630Z,1.20
2023-12-29T11:02:34.847Z,1.22
2023-12-29T11:05:05.380Z,1.50
2023-12-29T11:07:41.765Z,1.27
2023-12-29T11:10:09.738Z,1.07
2023-12-29T11:12:37.968Z,1.40
2023-12-29T11:15:08.102Z,1.26
2023-12-29T11:17:38.006Z,1.08
2023-12-29T11:20:05.866Z,1.25
2023-12-29T11:22:33.274Z,1.10
2023-12-29T11:25:01.053Z,1.22
2023-12-29T11:27:32.022Z,1.35
2023-12-29T11:30:00.007Z,1.18
2023-12-29T11:32:32.881Z,1.31
2023-12-29T11:35:07.972Z,1.21
2023-12-29T11:37:48.254Z,1.31
2023-12-29T11:40:14.840Z,1.37
2023-12-29T11:42:43.631Z,1.47
2023-12-29T11:45:30.234Z,1.41
2023-12-29T11:47:58.236Z,1.46
2023-12-29T11:50:29.125Z,1.57
2023-12-29T11:52:55.915Z,1.52
2023-12-29T11:55:22.918Z,2.20
2023-12-29T11:57:49.683Z,3.36
2023-12-29T12:00:17.681Z,2.22
2023-12-29T12:02:44.517Z,2.41
2023-12-29T12:05:12.610Z,2.29
2023-12-29T12:07:42.052Z,5.44
2023-12-29T12:10:21.143Z,2.52
2023-12-29T12:12:49.612Z,7.08
2023-12-29T12:15:28.402Z,4.05
2023-12-29T12:17:56.030Z,6.73
2023-12-29T12:20:23.027Z,3.43
2023-12-29T12:22:51.341Z,3.92
2023-12-29T12:25:18.384Z,6.61
2023-12-29T12:27:45.146Z,7.96
2023-12-29T12:30:12.291Z,4.12
2023-12-29T12:32:39.113Z,3.37
2023-12-29T12:35:16.154Z,6.20
2023-12-29T12:37:43.466Z,4.23
2023-12-29T12:40:10.572Z,5.25
2023-12-29T12:42:42.989Z,4.07
2023-12-29T12:45:14.093Z,3.85
2023-12-29T12:47:47.118Z,4.31
2023-12-29T12:50:14.403Z,3.82
2023-12-29T12:52:41.429Z,3.06
2023-12-29T12:55:09.562Z,3.92
2023-12-29T12:57:37.910Z,3.51
2023-12-29T13:00:05.167Z,2.45
2023-12-29T13:02:33.176Z,2.52
2023-12-29T13:05:00.105Z,2.36
2023-12-29T13:07:27.001Z,2.26
2023-12-29T13:09:54.181Z,2.35
2023-12-29T13:12:20.925Z,2.25
2023-12-29T13:14:47.578Z,1.81
2023-12-29T13:17:16.420Z,1.85
2023-12-29T13:19:44.348Z,1.79
2023-12-29T13:22:12.198Z,1.72
2023-12-29T13:24:46.457Z,1.81
2023-12-29T13:27:14.082Z,1.80
2023-12-29T13:29:42.035Z,1.72
2023-12-29T13:32:12.764Z,1.64
2023-12-29T13:34:50.129Z,1.66
2023-12-29T13:37:16.921Z,1.52
2023-12-29T13:39:47.251Z,1.77
2023-12-29T13:42:18.071Z,1.75
2023-12-29T13:44:46.208Z,1.86
2023-12-29T13:47:15.354Z,2.00
2023-12-29T13:49:42.346Z,2.19
2023-12-29T13:52:09.225Z,1.97
2023-12-29T13:54:45.432Z,1.91
2023-12-29T13:57:13.532Z,1.91
2023-12-29T13:59:40.760Z,2.07
2023-12-29T14:02:24.289Z,1.95
2023-12-29T14:04:51.103Z,2.06
2023-12-29T14:07:25.811Z,2.23
2023-12-29T14:09:55.129Z,2.23
2023-12-29T14:12:26.421Z,2.44
2023-12-29T14:14:53.145Z,2.43
2023-12-29T14:17:23.358Z,2.32
2023-12-29T14:19:50.134Z,2.45
2023-12-29T14:22:23.549Z,2.33
2023-12-29T14:25:08.929Z,2.18
2023-12-29T14:27:35.766Z,2.49
2023-12-29T14:30:03.309Z,2.33
2023-12-29T14:32:31.321Z,2.63
2023-12-29T14:34:58.121Z,2.92
2023-12-29T14:37:24.830Z,2.79
2023-12-29T14:39:52.019Z,3.42
2023-12-29T14:42:19.152Z,4.23
2023-12-29T14:44:51.785Z,3.38
2023-12-29T14:47:19.066Z,3.29
2023-12-29T14:49:46.414Z,2.93
2023-12-29T14:52:13.130Z,2.85
2023-12-29T14:54:41.295Z,2.84
2023-12-29T14:57:11.843Z,2.94
2023-12-29T14:59:42.471Z,2.73
2023-12-29T15:02:09.314Z,2.81
2023-12-29T15:04:36.397Z,2.49
2023-12-29T15:07:03.381Z,2.24
2023-12-29T15:09:31.102Z,2.34
2023-12-29T15:11:58.438Z,2.07
2023-12-29T15:14:25.230Z,2.15
2023-12-29T15:16:51.944Z,1.80
2023-12-29T15:19:18.697Z,1.99
2023-12-29T15:21:45.377Z,1.96
2023-12-29T15:24:12.052Z,1.89
2023-12-29T15:26:38.744Z,1.85
2023-12-29T15:29:05.546Z,1.97
2023-12-29T15:31:32.307Z,1.98
2023-12-29T15:33:59.106Z,1.92
2023-12-29T15:36:25.968Z,1.81
2023-12-29T15:38:52.730Z,2.33
2023-12-29T15:41:19.629Z,2.58
2023-12-29T15:43:47.628Z,1.56
2023-12-29T15:46:15.096Z,1.49
2023-12-29T15:48:42.250Z,1.38
2023-12-29T15:51:09.957Z,1.98
2023-12-29T15:53:36.759Z,1.75
2023-12-29T15:56:06.465Z,1.12
2023-12-29T15:58:33.184Z,1.80
2023-12-29T16:01:00.145Z,1.64
2023-12-29T16:03:26.906Z,1.49
2023-12-29T16:05:53.763Z,1.57
2023-12-29T16:08:20.458Z,1.22
2023-12-29T16:10:47.128Z,1.64
2023-12-29T16:13:14.575Z,1.38
2023-12-29T16:15:41.401Z,1.63
2023-12-29T16:18:08.314Z,1.73
2023-12-29T16:20:35.079Z,1.82
2023-12-29T16:23:01.784Z,1.88
2023-12-29T16:25:28.757Z,2.08
2023-12-29T16:27:55.525Z,2.10
2023-12-29T16:30:22.316Z,2.06
2023-12-29T16:32:49.082Z,2.92
2023-12-29T16:35:17.142Z,2.79
2023-12-29T16:37:44.029Z,3.17
2023-12-29T16:40:11.670Z,2.86
2023-12-29T16:42:38.493Z,2.72
2023-12-29T16:45:05.346Z,2.87
2023-12-29T16:47:33.309Z,3.67
2023-12-29T16:50:00.100Z,4.22
2023-12-29T16:52:26.787Z,4.10
2023-12-29T16:54:53.452Z,4.20
2023-12-29T16:57:20.162Z,3.38
2023-12-29T16:59:46.968Z,3.10
2023-12-29T17:02:13.991Z,3.95
2023-12-29T17:04:42.294Z,3.94
2023-12-29T17:07:10.788Z,5.29
2023-12-29T17:09:45.043Z,6.95
2023-12-29T17:12:11.784Z,5.18
2023-12-29T17:14:39.739Z,3.26
2023-12-29T17:17:06.533Z,3.09
2023-12-29T17:19:33.341Z,2.51
2023-12-29T17:22:02.814Z,2.36
2023-12-29T17:24:30.096Z,3.32
2023-12-29T17:26:56.700Z,2.96
2023-12-29T17:29:23.334Z,4.99
2023-12-29T17:31:50.527Z,3.15
2023-12-29T17:34:17.303Z,4.51
2023-12-29T17:36:45.204Z,4.24
2023-12-29T17:39:11.829Z,5.07
2023-12-29T17:41:38.483Z,6.90
2023-12-29T17:44:05.172Z,2.92
2023-12-29T17:46:31.973Z,3.17
2023-12-29T17:48:58.713Z,3.15
2023-12-29T17:51:29.484Z,3.36
2023-12-29T17:53:56.506Z,4.34
2023-12-29T17:56:23.359Z,2.46
2023-12-29T17:58:50.204Z,4.43
2023-12-29T18:01:17.049Z,5.07
2023-12-29T18:03:44.002Z,5.81
2023-12-29T18:06:14.321Z,2.13
2023-12-29T18:08:42.532Z,2.37
2023-12-29T18:11:09.786Z,2.29
2023-12-29T18:13:37.628Z,1.96
2023-12-29T18:16:10.882Z,3.62
2023-12-29T18:18:38.268Z,3.06
2023-12-29T18:21:05.479Z,3.72
2023-12-29T18:23:32.400Z,3.09
2023-12-29T18:26:01.507Z,2.76
2023-12-29T18:28:28.195Z,3.10
2023-12-29T18:30:55.263Z,3.11
2023-12-29T18:33:22.046Z,2.84
2023-12-29T18:35:50.243Z,2.99
2023-12-29T18:38:16.868Z,3.43
2023-12-29T18:40:43.694Z,6.68
2023-12-29T18:43:10.853Z,3.67
2023-12-29T18:45:37.543Z,3.32
2023-12-29T18:48:05.496Z,4.16
2023-12-29T18:50:32.355Z,3.74
2023-12-29T18:52:59.229Z,4.17
2023-12-29T18:55:26.153Z,4.70
2023-12-29T18:57:52.940Z,5.44
2023-12-29T19:00:19.651Z,4.85
2023-12-29T19:02:47.446Z,5.64
2023-12-29T19:05:14.177Z,6.59
2023-12-29T19:07:40.900Z,4.90
2023-12-29T19:10:09.503Z,3.74
2023-12-29T19:12:36.671Z,3.88
2023-12-29T19:15:05.843Z,2.86
2023-12-29T19:17:32.753Z,17.07
2023-12-29T19:19:59.495Z,10.58
2023-12-29T19:22:27.009Z,2.86
2023-12-29T19:24:54.714Z,3.05
2023-12-29T19:27:21.460Z,3.49
2023-12-29T19:29:48.152Z,4.65
2023-12-29T19:32:15.052Z,4.93
2023-12-29T19:34:44.915Z,3.00
2023-12-29T19:37:11.778Z,3.02
2023-12-29T19:39:38.801Z,3.73
2023-12-29T19:42:05.760Z,3.49
2023-12-29T19:44:32.487Z,3.43
2023-12-29T19:46:59.189Z,3.66
2023-12-29T19:49:26.073Z,3.80
2023-12-29T19:51:52.839Z,3.89
2023-12-29T19:54:19.635Z,3.54
2023-12-29T19:56:46.381Z,3.19
2023-12-29T19:59:14.207Z,3.26
2023-12-29T20:01:47.264Z,4.06
2023-12-29T20:04:18.882Z,4.48
2023-12-29T20:06:45.639Z,3.37
2023-12-29T20:09:12.451Z,2.91
2023-12-29T20:11:40.360Z,4.58
2023-12-29T20:14:10.431Z,4.14
2023-12-29T20:16:37.215Z,4.23
2023-12-29T20:19:04.793Z,4.13
2023-12-29T20:21:31.720Z,7.03
2023-12-29T20:23:59.585Z,4.21
2023-12-29T20:26:27.557Z,3.88
2023-12-29T20:28:55.073Z,4.91
2023-12-29T20:31:32.497Z,3.95
2023-12-29T20:33:59.562Z,4.33
2023-12-29T20:36:27.174Z,6.91
2023-12-29T20:38:55.708Z,5.85
2023-12-29T20:41:23.500Z,4.95
2023-12-29T20:43:52.610Z,4.90
2023-12-29T20:46:23.231Z,4.76
2023-12-29T20:48:51.023Z,5.00
2023-12-29T20:51:21.964Z,4.52
2023-12-29T20:53:50.553Z,4.41
2023-12-29T20:56:17.985Z,4.54
2023-12-29T20:58:51.844Z,4.53
2023-12-29T21:01:21.321Z,5.37
2023-12-29T21:03:48.347Z,4.98
2023-12-29T21:06:16.077Z,5.52
2023-12-29T21:08:42.868Z,5.26
2023-12-29T21:11:09.573Z,5.48
2023-12-29T21:13:36.397Z,5.09
2023-12-29T21:16:03.335Z,5.11
2023-12-29T21:18:30.237Z,5.39
2023-12-29T21:20:56.899Z,5.43
2023-12-29T21:23:23.592Z,5.57
2023-12-29T21:25:50.231Z,5.24
2023-12-29T21:28:17.074Z,5.35
2023-12-29T21:30:44.081Z,5.33
2023-12-29T21:33:11.027Z,5.28
2023-12-29T21:35:37.810Z,4.92
2023-12-29T21:38:04.668Z,4.91
2023-12-29T21:40:31.453Z,4.71
2023-12-29T21:42:58.302Z,5.49
2023-12-29T21:45:25.377Z,5.87
2023-12-29T21:47:52.491Z,5.30
2023-12-29T21:50:19.249Z,4.69
2023-12-29T21:52:46.358Z,4.63
2023-12-29T21:55:13.300Z,5.36
2023-12-29T21:57:40.485Z,6.00
2023-12-29T22:00:07.557Z,6.02
2023-12-29T22:02:34.468Z,6.28
2023-12-29T22:05:01.247Z,5.36
2023-12-29T22:07:28.174Z,5.62
2023-12-29T22:09:54.891Z,7.08
2023-12-29T22:12:21.752Z,5.93
2023-12-29T22:14:48.543Z,5.85
2023-12-29T22:17:15.246Z,6.34
2023-12-29T22:19:42.604Z,6.22
2023-12-29T22:22:09.331Z,6.18
2023-12-29T22:24:36.046Z,5.14
2023-12-29T22:27:02.839Z,5.76
2023-12-29T22:29:29.548Z,7.98
2023-12-29T22:31:56.445Z,4.37
2023-12-29T22:34:25.208Z,4.62
2023-12-29T22:36:52.178Z,5.17
2023-12-29T22:39:18.910Z,4.94
2023-12-29T22:41:45.770Z,4.52
2023-12-29T22:44:13.426Z,5.44
2023-12-29T22:46:40.419Z,5.56
2023-12-29T22:49:08.890Z,4.41
2023-12-29T22:51:35.832Z,2.81
2023-12-29T22:54:02.615Z,2.77
2023-12-29T22:56:29.408Z,2.44
2023-12-29T22:58:56.154Z,2.15
2023-12-29T23:01:22.924Z,2.66
2023-12-29T23:03:50.125Z,2.56
2023-12-29T23:06:16.997Z,2.81
2023-12-29T23:08:43.701Z,3.12
2023-12-29T23:11:10.341Z,3.67
2023-12-29T23:13:37.221Z,3.49
2023-12-29T23:16:04.192Z,3.39
2023-12-29T23:18:30.913Z,2.92
2023-12-29T23:20:57.714Z,2.88
2023-12-29T23:23:24.589Z,6.25
2023-12-29T23:25:51.208Z,2.42
2023-12-29T23:28:17.949Z,2.73
2023-12-29T23:30:44.755Z,4.09
2023-12-29T23:33:11.683Z,4.00
2023-12-29T23:35:38.794Z,13.57
2023-12-29T23:38:05.580Z,3.90
2023-12-29T23:40:32.268Z,4.29
2023-12-29T23:42:59.167Z,3.26
2023-12-29T23:45:26.017Z,2.74
2023-12-29T23:47:52.751Z,2.50
2023-12-29T23:50:19.517Z,1.86
2023-12-29T23:52:46.122Z,1.95
2023-12-29T23:55:12.933Z,2.33
2023-12-29T23:57:39.538Z,3.45
